Time;durP1;ratioP1;P1;durP2;ratioP2;P2;SDS_P1;SDS_P2;PMS_P1;PMS_P2;Temp;Humidity;BMP_temperature;BMP_pressure;BME280_temperature;BME280_humidity;BME280_pressure;Samples;Min_cycle;Max_cycle;Signal;HPM_P1;HPM_P2
2021/03/26 00:02:13;;;;;;;68.30;28.40;;;5.80;99.90;;;;;;5013606;28;20060;-75
2021/03/26 00:04:39;;;;;;;69.80;28.17;;;5.80;99.90;;;;;;5012621;28;20076;-75
2021/03/26 00:07:04;;;;;;;79.32;28.42;;;5.80;99.90;;;;;;5009702;28;20030;-75
2021/03/26 00:09:34;;;;;;;69.00;27.95;;;5.90;99.90;;;;;;5011440;28;20029;-75
2021/03/26 00:12:05;;;;;;;61.42;24.75;;;5.70;99.90;;;;;;5011517;28;20045;-75
2021/03/26 00:14:31;;;;;;;50.90;25.42;;;5.70;99.90;;;;;;5011195;28;20502;-75
2021/03/26 00:16:56;;;;;;;64.32;27.63;;;5.50;99.90;;;;;;5011947;28;20061;-75
2021/03/26 00:19:22;;;;;;;76.88;29.75;;;5.30;99.90;;;;;;5013201;28;20025;-75
2021/03/26 00:21:47;;;;;;;71.90;31.77;;;5.10;99.90;;;;;;5011135;28;20033;-75
2021/03/26 00:24:13;;;;;;;75.05;32.25;;;5.00;99.90;;;;;;5011475;28;20026;-75
2021/03/26 00:26:39;;;;;;;79.35;32.40;;;4.90;99.90;;;;;;5012108;28;20029;-75
2021/03/26 00:29:11;;;;;;;76.85;34.42;;;4.80;99.90;;;;;;5012734;28;20085;-76
2021/03/26 00:31:38;;;;;;;89.07;36.28;;;4.70;99.90;;;;;;5011831;28;20029;-75
2021/03/26 00:34:03;;;;;;;87.50;35.65;;;4.60;99.90;;;;;;5012215;28;20155;-75
2021/03/26 00:36:31;;;;;;;86.70;37.42;;;4.50;99.90;;;;;;5012895;28;20076;-75
2021/03/26 00:38:57;;;;;;;93.57;38.25;;;4.50;99.90;;;;;;5010836;28;20502;-74
2021/03/26 00:41:22;;;;;;;98.03;38.45;;;4.50;99.90;;;;;;5010707;28;20058;-76
2021/03/26 00:43:48;;;;;;;96.57;39.03;;;4.50;99.90;;;;;;5009849;28;20042;-76
2021/03/26 00:46:13;;;;;;;90.22;38.25;;;4.40;99.90;;;;;;5012815;28;20034;-75
2021/03/26 00:48:39;;;;;;;110.30;41.88;;;4.40;99.90;;;;;;5011285;28;20026;-76
2021/03/26 00:51:04;;;;;;;93.57;38.03;;;4.30;99.90;;;;;;5012361;28;20045;-75
2021/03/26 00:53:34;;;;;;;104.40;39.30;;;4.30;99.90;;;;;;5012662;28;20091;-75
2021/03/26 00:56:01;;;;;;;105.22;41.75;;;4.20;99.90;;;;;;5009776;28;20034;-75
2021/03/26 00:58:26;;;;;;;105.05;40.47;;;4.20;99.90;;;;;;5011305;28;20052;-75
2021/03/26 01:00:52;;;;;;;101.32;42.20;;;4.10;99.90;;;;;;5012457;28;20034;-75
2021/03/26 01:03:20;;;;;;;112.60;44.35;;;4.10;99.90;;;;;;5012300;28;20368;-75
2021/03/26 01:05:50;;;;;;;106.50;43.80;;;4.10;99.90;;;;;;5010479;28;20113;-75
2021/03/26 01:08:16;;;;;;;124.75;47.05;;;4.00;99.90;;;;;;5007786;28;20029;-75
2021/03/26 01:10:46;;;;;;;107.15;42.97;;;4.00;99.90;;;;;;5007537;28;20018;-74
2021/03/26 01:13:15;;;;;;;114.10;44.60;;;4.00;99.90;;;;;;5011034;28;20037;-75
2021/03/26 01:15:40;;;;;;;142.30;52.50;;;3.90;99.90;;;;;;5010314;28;20022;-75
2021/03/26 01:18:07;;;;;;;142.45;52.83;;;3.90;99.90;;;;;;5010794;28;20385;-75
2021/03/26 01:20:37;;;;;;;147.43;60.00;;;4.00;99.90;;;;;;5009724;28;20083;-75
2021/03/26 01:23:06;;;;;;;167.50;62.67;;;4.00;99.90;;;;;;5008365;28;20021;-75
2021/03/26 01:25:40;;;;;;;183.35;67.35;;;4.00;99.90;;;;;;5010566;28;20034;-75
2021/03/26 01:28:06;;;;;;;;;;;4.10;99.90;;;;;;5011195;28;20048;-75
2021/03/26 01:30:33;;;;;;;211.38;70.50;;;4.10;99.90;;;;;;5011723;28;20409;-75
2021/03/26 01:33:00;;;;;;;208.13;71.57;;;4.20;99.90;;;;;;5010680;28;20026;-75
2021/03/26 01:35:26;;;;;;;196.77;68.10;;;4.20;99.90;;;;;;5011315;28;20524;-76
2021/03/26 01:37:52;;;;;;;189.52;67.97;;;4.20;99.90;;;;;;5009645;28;20080;-75
2021/03/26 01:40:23;;;;;;;192.18;69.18;;;4.20;99.90;;;;;;5011039;28;20030;-75
2021/03/26 01:42:49;;;;;;;192.15;68.63;;;4.10;99.90;;;;;;5009643;28;20040;-75
2021/03/26 01:45:23;;;;;;;214.18;70.30;;;4.10;99.90;;;;;;5009753;28;20116;-75
2021/03/26 01:47:51;;;;;;;203.73;68.68;;;4.10;99.90;;;;;;5011482;28;20042;-75
2021/03/26 01:50:19;;;;;;;218.13;66.70;;;4.10;99.90;;;;;;5011738;28;20490;-75
2021/03/26 01:52:46;;;;;;;223.88;70.65;;;4.10;99.90;;;;;;5010803;28;20065;-75
2021/03/26 01:55:20;;;;;;;176.50;63.45;;;4.20;99.90;;;;;;5008861;28;20044;-75
2021/03/26 01:57:47;;;;;;;193.05;68.75;;;4.10;99.90;;;;;;5009519;28;20033;-75
2021/03/26 02:00:21;;;;;;;201.52;65.63;;;4.10;99.90;;;;;;5011590;28;20030;-76
2021/03/26 02:02:47;;;;;;;215.30;71.13;;;4.10;99.90;;;;;;5013944;28;20481;-75
2021/03/26 02:05:18;;;;;;;215.98;69.65;;;4.10;99.90;;;;;;5012621;28;20056;-75
2021/03/26 02:07:43;;;;;;;201.75;68.57;;;4.10;99.90;;;;;;5013605;28;20030;-75
2021/03/26 02:10:10;;;;;;;201.82;69.63;;;4.10;99.90;;;;;;5012640;28;20041;-76
2021/03/26 02:12:36;;;;;;;192.38;65.43;;;4.10;99.90;;;;;;5012624;28;20080;-75
2021/03/26 02:15:08;;;;;;;191.05;63.60;;;4.10;99.90;;;;;;5014841;28;20030;-75
2021/03/26 02:17:39;;;;;;;183.33;62.80;;;4.00;99.90;;;;;;5015395;28;20056;-75
2021/03/26 02:20:07;;;;;;;185.82;61.20;;;4.00;99.90;;;;;;5013991;28;20273;-75
2021/03/26 02:22:35;;;;;;;186.57;60.53;;;4.00;99.90;;;;;;5011969;28;20038;-75
2021/03/26 02:25:01;;;;;;;178.18;61.92;;;4.00;99.90;;;;;;5014833;28;20386;-75
2021/03/26 02:27:31;;;;;;;174.07;59.17;;;4.00;99.90;;;;;;5012059;28;20030;-75
2021/03/26 02:29:58;;;;;;;167.50;58.72;;;4.00;99.90;;;;;;5013816;28;20045;-75
2021/03/26 02:32:34;;;;;;;169.30;59.30;;;4.00;99.90;;;;;;5015326;28;20033;-75
2021/03/26 02:35:12;;;;;;;163.82;59.13;;;4.00;99.90;;;;;;4997657;28;20038;-75
2021/03/26 02:37:42;;;;;;;147.25;55.08;;;4.00;99.90;;;;;;5012864;28;20502;-75
2021/03/26 02:40:14;;;;;;;147.10;54.28;;;4.00;99.90;;;;;;5012970;28;20034;-75
2021/03/26 02:42:40;;;;;;;131.07;50.53;;;4.10;99.90;;;;;;5011716;28;20022;-75
2021/03/26 02:45:33;;;;;;;137.63;49.95;;;4.10;99.90;;;;;;5013008;28;20018;-74
2021/03/26 02:48:04;;;;;;;136.15;47.20;;;4.10;99.90;;;;;;5014729;28;20021;-75
2021/03/26 02:50:59;;;;;;;120.10;44.25;;;4.10;99.90;;;;;;5011498;28;20022;-75
2021/03/26 02:53:42;;;;;;;102.60;43.40;;;4.10;99.90;;;;;;5009101;28;20734;-75
2021/03/26 02:56:24;;;;;;;96.20;42.47;;;4.10;99.90;;;;;;5013696;28;20053;-75
2021/03/26 02:58:56;;;;;;;106.60;42.25;;;4.10;99.90;;;;;;5013207;28;20041;-75
2021/03/26 03:01:39;;;;;;;92.20;40.28;;;4.20;99.90;;;;;;5014917;28;20026;-75
2021/03/26 03:04:16;;;;;;;90.65;35.97;;;4.20;99.90;;;;;;5014049;28;20038;-75
2021/03/26 03:06:52;;;;;;;73.32;31.20;;;4.30;99.90;;;;;;5014324;28;20026;-75
2021/03/26 03:09:19;;;;;;;74.70;32.80;;;4.40;99.90;;;;;;5012566;28;20026;-75
2021/03/26 03:11:53;;;;;;;65.18;31.02;;;4.40;99.90;;;;;;5007769;28;20550;-75
2021/03/26 03:14:27;;;;;;;76.38;30.20;;;4.50;99.90;;;;;;5012842;28;20025;-75
2021/03/26 03:17:23;;;;;;;69.40;28.98;;;4.60;99.90;;;;;;5014296;28;20112;-75
2021/03/26 03:19:56;;;;;;;61.72;27.67;;;4.60;99.90;;;;;;5008669;28;20125;-75
2021/03/26 03:22:30;;;;;;;59.35;26.15;;;4.70;99.90;;;;;;5011827;28;20064;-75
2021/03/26 03:25:05;;;;;;;60.13;28.42;;;4.90;99.90;;;;;;5012573;28;20577;-75
2021/03/26 03:27:43;;;;;;;62.55;27.52;;;5.00;99.90;;;;;;5012080;28;20501;-75
2021/03/26 03:30:15;;;;;;;74.07;27.40;;;5.00;99.90;;;;;;5014031;28;20028;-75
2021/03/26 03:33:04;;;;;;;61.95;26.15;;;5.00;99.90;;;;;;5014165;28;20029;-75
2021/03/26 03:35:41;;;;;;;65.38;28.00;;;4.90;99.90;;;;;;5013104;28;20481;-74
2021/03/26 03:38:16;;;;;;;51.47;26.92;;;4.90;99.90;;;;;;5012691;28;20508;-76
2021/03/26 03:40:56;;;;;;;61.20;27.63;;;4.90;99.90;;;;;;5011918;28;20036;-75
2021/03/26 03:43:38;;;;;;;62.83;26.15;;;4.90;99.90;;;;;;5011644;28;20049;-75
2021/03/26 03:46:24;;;;;;;43.13;23.58;;;4.90;99.90;;;;;;5000843;28;20018;-75
2021/03/26 03:49:04;;;;;;;51.50;24.65;;;4.90;99.90;;;;;;5013860;28;20034;-75
2021/03/26 03:51:54;;;;;;;54.60;22.48;;;4.90;99.90;;;;;;5011597;28;20030;-74
2021/03/26 03:54:26;;;;;;;49.30;22.00;;;4.90;99.90;;;;;;5011988;28;20028;-75
2021/03/26 03:57:00;;;;;;;48.60;23.50;;;4.90;99.90;;;;;;5011575;28;20569;-75
2021/03/26 03:59:37;;;;;;;60.42;24.25;;;4.90;99.90;;;;;;5013570;28;20022;-75
2021/03/26 04:02:14;;;;;;;44.35;20.35;;;4.90;99.90;;;;;;5013667;28;20081;-75
2021/03/26 04:04:49;;;;;;;59.33;22.58;;;4.80;99.90;;;;;;5012244;28;20030;-75
2021/03/26 04:07:31;;;;;;;56.75;21.73;;;4.80;99.90;;;;;;5011460;28;20485;-74
2021/03/26 04:10:01;;;;;;;52.05;20.52;;;4.80;99.90;;;;;;5007746;28;20033;-74
2021/03/26 04:12:37;;;;;;;55.35;22.98;;;4.70;99.90;;;;;;5009637;28;20025;-75
2021/03/26 04:15:23;;;;;;;47.30;21.67;;;4.60;99.90;;;;;;5012556;28;20033;-75
2021/03/26 04:18:00;;;;;;;48.95;22.50;;;4.50;99.90;;;;;;5013218;28;20026;-75
2021/03/26 04:20:35;;;;;;;42.97;19.65;;;4.50;99.90;;;;;;5012178;28;20398;-75
2021/03/26 04:23:13;;;;;;;49.35;21.77;;;4.50;99.90;;;;;;5010962;28;20029;-75
2021/03/26 04:25:41;;;;;;;51.17;22.60;;;4.30;99.90;;;;;;5010967;28;20018;-75
2021/03/26 04:28:15;;;;;;;59.58;24.50;;;4.20;99.90;;;;;;5010734;28;20033;-75
2021/03/26 04:31:01;;;;;;;;;;;4.20;99.90;;;;;;5013408;28;20095;-74
2021/03/26 04:33:26;;;;;;;58.45;22.58;;;4.20;99.90;;;;;;5012359;28;19960;-75
2021/03/26 04:35:53;;;;;;;50.47;23.73;;;4.30;99.90;;;;;;5012256;28;20478;-75
2021/03/26 04:38:44;;;;;;;56.95;23.98;;;4.40;99.90;;;;;;5010922;28;20422;-75
2021/03/26 04:41:25;;;;;;;57.92;22.25;;;4.40;99.90;;;;;;4994475;28;20064;-75
2021/03/26 04:44:08;;;;;;;58.42;24.35;;;4.40;99.90;;;;;;5010907;28;20026;-75
2021/03/26 04:47:03;;;;;;;58.55;29.20;;;4.60;99.90;;;;;;5012828;28;20030;-75
2021/03/26 04:49:37;;;;;;;61.40;25.02;;;4.70;99.90;;;;;;4997957;28;20034;-76
2021/03/26 04:52:09;;;;;;;57.28;25.60;;;4.80;99.90;;;;;;5010585;28;20026;-75
2021/03/26 04:54:43;;;;;;;52.88;25.38;;;4.80;99.90;;;;;;5009141;28;20037;-75
2021/03/26 04:57:26;;;;;;;62.63;25.73;;;4.90;99.90;;;;;;5009737;28;20431;-75
2021/03/26 05:00:35;;;;;;;52.08;24.15;;;5.00;99.90;;;;;;5002510;28;20549;-75
2021/03/26 05:03:27;;;;;;;58.55;26.15;;;5.00;99.90;;;;;;4970989;28;20058;-75
2021/03/26 05:06:13;;;;;;;55.92;24.95;;;5.00;99.90;;;;;;5010960;28;20038;-75
2021/03/26 05:08:46;;;;;;;51.75;24.42;;;5.20;99.90;;;;;;5010507;28;20052;-75
2021/03/26 05:11:13;;;;;;;48.20;22.92;;;5.30;99.90;;;;;;5007989;28;20021;-75
2021/03/26 05:13:49;;;;;;;50.75;25.45;;;5.40;99.90;;;;;;5010642;28;20380;-75
2021/03/26 05:16:24;;;;;;;59.58;22.65;;;5.50;99.90;;;;;;5012352;28;20120;-75
2021/03/26 05:19:15;;;;;;;52.28;23.70;;;5.60;99.90;;;;;;5012155;28;20097;-75
2021/03/26 05:21:53;;;;;;;54.83;23.77;;;5.60;99.90;;;;;;5009328;28;20022;-75
2021/03/26 05:24:27;;;;;;;62.67;23.33;;;5.70;99.90;;;;;;4991997;28;20073;-75
2021/03/26 05:26:53;;;;;;;52.85;23.08;;;5.80;99.90;;;;;;5001971;28;22561;-75
2021/03/26 05:29:19;;;;;;;44.78;22.90;;;5.80;99.90;;;;;;5010502;28;20026;-75
2021/03/26 05:32:13;;;;;;;58.67;23.27;;;5.90;99.90;;;;;;5012105;28;20025;-75
2021/03/26 05:35:07;;;;;;;44.92;20.95;;;5.80;99.90;;;;;;5011300;28;20109;-75
2021/03/26 05:37:36;;;;;;;50.58;22.08;;;5.90;99.90;;;;;;4996149;28;20130;-75
2021/03/26 05:40:25;;;;;;;45.78;21.13;;;6.00;99.90;;;;;;5010044;28;20029;-75
2021/03/26 05:43:17;;;;;;;44.25;20.83;;;6.10;99.90;;;;;;5010946;28;20112;-76
2021/03/26 05:46:19;;;;;;;46.33;20.83;;;6.20;99.90;;;;;;4957694;28;20034;-74
2021/03/26 05:49:08;;;;;;;48.17;21.77;;;6.30;99.90;;;;;;5003828;28;20152;-75
2021/03/26 05:51:58;;;;;;;63.13;20.85;;;6.30;99.90;;;;;;5011816;28;20022;-75
2021/03/26 05:54:48;;;;;;;41.63;21.77;;;6.40;99.90;;;;;;5010144;28;20390;-75
2021/03/26 05:57:24;;;;;;;42.42;20.73;;;6.50;99.90;;;;;;5023536;28;20109;-76
2021/03/26 06:00:02;;;;;;;43.08;21.08;;;6.50;99.90;;;;;;5010495;28;20482;-75
2021/03/26 06:02:48;;;;;;;50.97;21.73;;;6.60;99.90;;;;;;5010352;28;20056;-76
2021/03/26 06:05:18;;;;;;;48.45;22.73;;;6.50;99.90;;;;;;4995216;28;20105;-75
2021/03/26 06:08:32;;;;;;;49.92;21.88;;;6.50;99.90;;;;;;5010603;28;20022;-75
2021/03/26 06:11:27;;;;;;;65.68;24.23;;;6.60;99.90;;;;;;4998096;28;20038;-75
2021/03/26 06:14:01;;;;;;;52.00;22.10;;;6.70;99.90;;;;;;5008869;28;20384;-75
2021/03/26 06:16:41;;;;;;;44.95;20.70;;;6.80;99.90;;;;;;5010581;28;20022;-75
2021/03/26 06:19:21;;;;;;;40.17;21.23;;;6.80;99.90;;;;;;5010235;28;20064;-75
2021/03/26 06:21:56;;;;;;;44.15;20.73;;;6.90;99.90;;;;;;5011551;28;20026;-75
2021/03/26 06:24:44;;;;;;;45.65;22.15;;;7.00;99.90;;;;;;5009928;28;20037;-75
2021/03/26 06:27:26;;;;;;;44.47;21.98;;;7.20;99.90;;;;;;5008483;28;20105;-75
2021/03/26 06:30:12;;;;;;;52.53;21.95;;;7.30;99.90;;;;;;5002523;28;20026;-75
2021/03/26 06:33:08;;;;;;;60.92;23.40;;;7.30;99.90;;;;;;5011327;28;20018;-75
2021/03/26 06:36:11;;;;;;;50.35;23.38;;;7.40;99.90;;;;;;5009813;28;20022;-76
2021/03/26 06:38:43;;;;;;;46.97;22.40;;;7.30;99.90;;;;;;5010506;28;20482;-76
2021/03/26 06:41:33;;;;;;;45.22;22.50;;;7.20;99.90;;;;;;5010955;28;20042;-76
2021/03/26 06:44:20;;;;;;;45.42;21.20;;;7.20;99.90;;;;;;5009155;28;20030;-75
2021/03/26 06:47:09;;;;;;;45.30;23.27;;;7.30;99.90;;;;;;5011334;28;20018;-75
2021/03/26 06:50:25;;;;;;;49.08;24.33;;;7.30;99.90;;;;;;5013393;28;20478;-75
2021/03/26 06:53:25;;;;;;;44.00;22.05;;;7.30;99.90;;;;;;4951537;29;20043;-75
2021/03/26 06:56:06;;;;;;;54.25;22.45;;;7.30;99.90;;;;;;5005271;28;20033;-75
2021/03/26 06:58:37;;;;;;;53.45;24.42;;;7.40;99.90;;;;;;5026876;28;20558;-75
2021/03/26 07:01:24;;;;;;;59.40;24.13;;;7.40;99.90;;;;;;4995324;28;20034;-75
2021/03/26 07:04:17;;;;;;;55.78;22.92;;;7.50;99.90;;;;;;5004041;28;20022;-75
2021/03/26 07:06:55;;;;;;;42.47;23.20;;;7.50;99.90;;;;;;5012490;28;20487;-75
2021/03/26 07:09:47;;;;;;;53.42;24.63;;;7.50;99.90;;;;;;5012624;28;20080;-75
2021/03/26 07:12:54;;;;;;;45.45;23.27;;;7.60;99.90;;;;;;4993657;28;20087;-75
2021/03/26 07:15:49;;;;;;;56.70;25.52;;;7.60;99.90;;;;;;5012582;28;20025;-75
2021/03/26 07:18:30;;;;;;;58.53;26.48;;;7.70;99.90;;;;;;4996947;28;20026;-76
2021/03/26 07:21:21;;;;;;;56.13;25.52;;;7.70;99.90;;;;;;5014446;28;20108;-75
2021/03/26 07:23:47;;;;;;;65.72;29.23;;;7.80;99.90;;;;;;5013737;28;20061;-75
2021/03/26 07:26:50;;;;;;;60.00;27.85;;;7.80;99.90;;;;;;5009677;28;20568;-75
2021/03/26 07:29:30;;;;;;;56.55;27.67;;;7.90;99.90;;;;;;5011134;28;20030;-75
2021/03/26 07:32:18;;;;;;;60.10;29.55;;;8.10;99.90;;;;;;5013029;28;20116;-75
2021/03/26 07:35:12;;;;;;;57.15;29.42;;;8.10;99.90;;;;;;5007685;28;20030;-75
2021/03/26 07:38:14;;;;;;;53.90;28.52;;;8.20;99.90;;;;;;5014154;28;20045;-75
2021/03/26 07:41:00;;;;;;;61.08;29.83;;;8.20;99.90;;;;;;5011242;28;20028;-75
2021/03/26 07:43:33;;;;;;;62.92;30.27;;;8.30;99.90;;;;;;5010637;28;20040;-75
2021/03/26 07:46:12;;;;;;;68.43;32.17;;;8.30;99.90;;;;;;5013310;28;20026;-75
2021/03/26 07:49:11;;;;;;;63.55;32.92;;;8.40;99.90;;;;;;5013616;28;20486;-75
2021/03/26 07:51:40;;;;;;;64.07;32.63;;;8.40;99.90;;;;;;5008859;28;20030;-77
2021/03/26 07:54:38;;;;;;;59.72;32.00;;;8.40;99.90;;;;;;5009014;28;20084;-76
2021/03/26 07:57:09;;;;;;;62.85;32.97;;;8.30;99.90;;;;;;5007163;28;20033;-75
2021/03/26 07:59:43;;;;;;;68.20;33.20;;;8.20;99.90;;;;;;5009719;28;20026;-76
2021/03/26 08:02:21;;;;;;;66.30;33.13;;;8.10;99.90;;;;;;5007128;28;20398;-75
2021/03/26 08:04:57;;;;;;;71.03;34.90;;;8.10;99.90;;;;;;5008982;28;20038;-77
2021/03/26 08:07:39;;;;;;;65.78;34.70;;;8.20;99.90;;;;;;5008807;28;20033;-75
2021/03/26 08:10:14;;;;;;;71.78;33.88;;;8.30;99.90;;;;;;5008610;28;20592;-75
2021/03/26 08:13:16;;;;;;;66.15;35.50;;;8.40;99.90;;;;;;5009673;28;20120;-75
2021/03/26 08:15:53;;;;;;;62.80;34.13;;;8.40;99.90;;;;;;5001588;28;20129;-75
2021/03/26 08:18:31;;;;;;;75.57;33.70;;;8.40;99.90;;;;;;5001604;28;20033;-75
2021/03/26 08:21:12;;;;;;;80.25;35.63;;;8.50;99.90;;;;;;5009512;28;20042;-75
2021/03/26 08:24:23;;;;;;;65.60;33.10;;;8.60;99.90;;;;;;5007950;28;20049;-75
2021/03/26 08:27:24;;;;;;;67.38;33.33;;;8.70;99.90;;;;;;4970248;28;20030;-75
2021/03/26 08:30:21;;;;;;;64.60;31.58;;;8.70;99.90;;;;;;4978450;28;20105;-76
2021/03/26 08:33:04;;;;;;;66.45;34.40;;;8.70;99.90;;;;;;5007734;28;20064;-75
2021/03/26 08:36:11;;;;;;;65.10;33.10;;;8.70;99.90;;;;;;5003467;28;20025;-75
2021/03/26 08:38:55;;;;;;;68.47;34.70;;;8.70;99.90;;;;;;4996757;28;20044;-75
2021/03/26 08:41:28;;;;;;;74.85;35.22;;;8.70;99.90;;;;;;5009390;28;20092;-76
2021/03/26 08:43:56;;;;;;;64.38;33.88;;;8.70;99.90;;;;;;5007238;28;20038;-74
2021/03/26 08:46:36;;;;;;;59.95;31.38;;;8.60;99.90;;;;;;5007442;28;20056;-75
2021/03/26 08:49:24;;;;;;;63.20;34.88;;;8.50;99.90;;;;;;5008172;28;20388;-75
2021/03/26 08:52:17;;;;;;;64.47;34.05;;;8.40;99.90;;;;;;5008346;28;20096;-75
2021/03/26 08:55:20;;;;;;;67.63;35.53;;;8.40;99.90;;;;;;5005909;28;20376;-74
2021/03/26 08:58:10;;;;;;;71.72;38.05;;;8.30;99.90;;;;;;4999930;28;20052;-75
2021/03/26 09:01:03;;;;;;;66.63;33.92;;;8.40;99.90;;;;;;5006994;28;20511;-75
2021/03/26 09:03:50;;;;;;;71.45;36.03;;;8.50;99.90;;;;;;5007672;28;20022;-75
2021/03/26 09:06:25;;;;;;;70.95;35.25;;;8.60;99.90;;;;;;5011385;28;20029;-75
2021/03/26 09:09:13;;;;;;;61.47;31.45;;;8.70;99.90;;;;;;5009794;28;20087;-75
2021/03/26 09:11:53;;;;;;;66.72;33.10;;;8.80;99.90;;;;;;5009711;28;20030;-75
2021/03/26 09:14:25;;;;;;;61.88;31.85;;;8.80;99.90;;;;;;5010599;28;20040;-75
2021/03/26 09:16:50;;;;;;;59.13;30.63;;;8.70;99.90;;;;;;5011491;28;20112;-75
2021/03/26 09:19:26;;;;;;;60.00;31.40;;;8.70;99.90;;;;;;5010843;28;20053;-75
2021/03/26 09:22:29;;;;;;;59.65;31.85;;;8.60;99.90;;;;;;5010760;28;20046;-76
2021/03/26 09:25:03;;;;;;;64.88;32.00;;;8.60;99.90;;;;;;5011406;28;20568;-75
2021/03/26 09:27:51;;;;;;;62.92;31.38;;;8.50;99.90;;;;;;5010472;28;20075;-75
2021/03/26 09:30:39;;;;;;;60.63;31.02;;;8.50;99.90;;;;;;5010463;28;20033;-75
2021/03/26 09:33:07;;;;;;;63.70;32.17;;;8.50;99.90;;;;;;5012029;28;20025;-75
2021/03/26 09:35:36;;;;;;;62.28;33.33;;;8.60;99.90;;;;;;5011263;28;20101;-74
2021/03/26 09:38:39;;;;;;;62.70;32.35;;;8.60;99.90;;;;;;5010514;28;20029;-75
2021/03/26 09:41:45;;;;;;;57.85;29.85;;;8.70;99.90;;;;;;5010508;28;20033;-76
2021/03/26 09:44:29;;;;;;;67.00;33.15;;;8.90;99.90;;;;;;5011231;28;20394;-75
2021/03/26 09:47:20;;;;;;;61.65;28.90;;;9.10;99.90;;;;;;5010239;28;20113;-75
2021/03/26 09:49:58;;;;;;;52.78;29.35;;;9.20;99.90;;;;;;5011914;28;20486;-75
2021/03/26 09:52:32;;;;;;;49.22;28.48;;;9.40;99.90;;;;;;5011725;28;20036;-75
2021/03/26 09:55:32;;;;;;;51.83;29.20;;;9.60;99.90;;;;;;5011125;28;20105;-75
2021/03/26 09:58:12;;;;;;;49.90;27.15;;;9.70;99.90;;;;;;5009722;28;20038;-75
2021/03/26 10:01:09;;;;;;;50.40;25.45;;;9.90;99.90;;;;;;5010282;28;20084;-75
2021/03/26 10:03:50;;;;;;;50.92;27.02;;;10.00;99.90;;;;;;5011680;28;20052;-75
2021/03/26 10:06:32;;;;;;;51.60;25.55;;;10.10;99.90;;;;;;5011598;28;20030;-75
2021/03/26 10:11:43;;;;;;;42.78;24.08;;;10.10;99.90;;;;;;5011979;28;20160;-76
2021/03/26 10:14:14;;;;;;;47.08;24.27;;;10.20;99.90;;;;;;5011009;28;20461;-75
2021/03/26 10:17:15;;;;;;;37.67;20.02;;;10.40;99.90;;;;;;5011568;28;20058;-75
2021/03/26 10:19:54;;;;;;;36.60;21.15;;;10.50;99.90;;;;;;5011415;28;20112;-75
2021/03/26 10:22:25;;;;;;;47.47;21.83;;;10.70;99.90;;;;;;5010229;28;20441;-75
2021/03/26 10:25:38;;;;;;;45.33;20.88;;;10.60;99.90;;;;;;5014932;28;20538;-75
2021/03/26 10:28:23;;;;;;;38.40;21.25;;;10.60;99.90;;;;;;5009664;28;20038;-76
2021/03/26 10:31:09;;;;;;;35.55;20.73;;;10.80;99.90;;;;;;5015349;28;20018;-74
2021/03/26 10:33:44;;;;;;;39.92;19.55;;;10.90;99.90;;;;;;5015145;28;20028;-75
2021/03/26 10:36:16;;;;;;;46.67;23.40;;;10.90;99.90;;;;;;5015285;28;20030;-75
2021/03/26 10:38:48;;;;;;;36.75;20.50;;;11.20;99.90;;;;;;5013909;28;20083;-75
2021/03/26 10:41:28;;;;;;;39.65;20.42;;;11.30;99.90;;;;;;5014951;28;20088;-75
2021/03/26 10:44:07;;;;;;;35.75;21.08;;;11.40;99.90;;;;;;5014349;28;20037;-74
2021/03/26 10:46:45;;;;;;;37.15;22.08;;;11.30;99.90;;;;;;5015049;28;20526;-76
2021/03/26 10:49:19;;;;;;;33.78;18.77;;;11.30;99.90;;;;;;5015098;28;20572;-75
2021/03/26 10:52:02;;;;;;;61.42;21.10;;;11.30;99.90;;;;;;5013695;28;20033;-76
2021/03/26 10:54:53;;;;;;;33.00;17.98;;;11.30;99.90;;;;;;5014192;28;20029;-75
2021/03/26 10:57:34;;;;;;;34.13;17.00;;;11.30;99.90;;;;;;5014241;28;20520;-75
2021/03/26 11:00:28;;;;;;;28.83;18.25;;;11.40;99.90;;;;;;5013644;28;20030;-75
2021/03/26 11:03:00;;;;;;;32.22;17.88;;;11.30;99.90;;;;;;5014630;28;20450;-75
2021/03/26 11:05:34;;;;;;;37.42;17.92;;;11.20;99.90;;;;;;5014065;28;20062;-75
2021/03/26 11:08:00;;;;;;;29.23;15.80;;;11.20;99.90;;;;;;5014592;28;20042;-75
2021/03/26 11:10:34;;;;;;;27.35;14.23;;;11.20;99.90;;;;;;5013325;28;20056;-74
2021/03/26 11:13:18;;;;;;;25.38;13.70;;;11.50;99.90;;;;;;5013290;28;20022;-75
2021/03/26 11:15:51;;;;;;;26.83;12.60;;;11.70;99.90;;;;;;5014091;28;20375;-76
2021/03/26 11:18:41;;;;;;;29.23;12.88;;;12.00;99.90;;;;;;5013014;28;20045;-75
2021/03/26 11:21:15;;;;;;;20.52;10.98;;;12.30;99.90;;;;;;5014493;28;20033;-75
2021/03/26 11:23:54;;;;;;;22.38;10.35;;;12.70;99.90;;;;;;5014013;28;20487;-76
2021/03/26 11:26:25;;;;;;;27.00;10.20;;;12.70;99.90;;;;;;5014215;28;20498;-75
2021/03/26 11:28:54;;;;;;;25.83;8.23;;;12.90;99.90;;;;;;5014189;28;20046;-76
2021/03/26 11:31:22;;;;;;;17.77;8.70;;;13.30;99.90;;;;;;5014366;28;20026;-75
2021/03/26 11:33:59;;;;;;;23.65;10.02;;;13.20;99.90;;;;;;5013064;28;20026;-75
2021/03/26 11:36:46;;;;;;;16.52;7.90;;;12.80;99.90;;;;;;5013469;28;20033;-75
2021/03/26 11:39:12;;;;;;;13.85;7.95;;;12.80;99.90;;;;;;5014093;28;20025;-75
2021/03/26 11:41:41;;;;;;;20.15;8.25;;;12.80;99.90;;;;;;5013976;28;20097;-75
2021/03/26 11:44:13;;;;;;;18.58;7.95;;;12.90;99.90;;;;;;5013092;28;20030;-75
2021/03/26 11:46:43;;;;;;;18.10;8.10;;;12.80;99.90;;;;;;5014379;28;20455;-75
2021/03/26 11:49:28;;;;;;;23.35;8.40;;;12.90;99.90;;;;;;5012506;28;20034;-75
2021/03/26 11:52:11;;;;;;;21.17;9.18;;;13.00;99.90;;;;;;5012466;28;20026;-76
2021/03/26 11:55:02;;;;;;;18.60;7.50;;;12.80;99.90;;;;;;5013162;28;20028;-75
2021/03/26 11:57:57;;;;;;;18.05;8.80;;;12.60;99.90;;;;;;5013731;28;20058;-75
2021/03/26 12:00:27;;;;;;;17.35;8.85;;;12.60;99.90;;;;;;5012327;28;20026;-75
2021/03/26 12:02:55;;;;;;;17.00;8.45;;;12.70;99.90;;;;;;5012307;28;20022;-75
2021/03/26 12:05:29;;;;;;;16.63;9.55;;;12.70;99.90;;;;;;5011656;28;20021;-75
2021/03/26 12:08:22;;;;;;;25.63;10.98;;;12.60;99.90;;;;;;5013740;28;20100;-75
2021/03/26 12:11:23;;;;;;;19.77;10.55;;;12.40;99.90;;;;;;5013498;28;20112;-75
2021/03/26 12:14:13;;;;;;;21.73;11.48;;;12.40;99.90;;;;;;5012737;28;20025;-75
2021/03/26 12:17:04;;;;;;;25.27;10.65;;;12.40;99.90;;;;;;5013361;28;20516;-74
2021/03/26 12:19:36;;;;;;;23.83;11.35;;;12.40;99.90;;;;;;5012764;28;20042;-75
2021/03/26 12:22:16;;;;;;;21.88;11.07;;;12.40;99.90;;;;;;5012000;28;20026;-75
2021/03/26 12:25:34;;;;;;;19.88;11.13;;;12.40;99.90;;;;;;5012523;28;20034;-75
2021/03/26 12:28:27;;;;;;;23.15;11.73;;;12.30;99.90;;;;;;5007858;28;20042;-75
2021/03/26 12:30:59;;;;;;;29.25;11.85;;;12.30;99.90;;;;;;5012960;28;20034;-75
2021/03/26 12:33:40;;;;;;;22.95;12.77;;;12.40;99.90;;;;;;5011881;28;20033;-75
2021/03/26 12:36:14;;;;;;;20.52;11.55;;;12.70;99.90;;;;;;5012832;28;20084;-77
2021/03/26 12:39:10;;;;;;;23.45;12.02;;;12.90;99.90;;;;;;5012864;28;20045;-75
2021/03/26 12:41:44;;;;;;;17.65;10.82;;;13.10;99.90;;;;;;5007189;28;20517;-75
2021/03/26 12:44:37;;;;;;;29.20;12.73;;;13.20;99.90;;;;;;5012124;28;20068;-75
2021/03/26 12:47:12;;;;;;;26.23;13.07;;;13.00;99.90;;;;;;5011064;28;20088;-75
2021/03/26 12:49:40;;;;;;;25.95;12.68;;;12.90;99.90;;;;;;5012770;28;20018;-75
2021/03/26 12:52:35;;;;;;;26.30;12.30;;;12.80;99.90;;;;;;5011415;28;20033;-75
2021/03/26 12:55:11;;;;;;;25.70;12.43;;;12.70;99.90;;;;;;4985554;28;20387;-75
2021/03/26 12:58:05;;;;;;;28.42;13.07;;;12.80;99.90;;;;;;5012393;28;20028;-75
2021/03/26 13:00:55;;;;;;;24.80;12.60;;;12.70;99.90;;;;;;5012681;28;20033;-75
2021/03/26 13:03:38;;;;;;;26.33;12.40;;;12.70;99.90;;;;;;5011302;28;20117;-75
2021/03/26 13:06:10;;;;;;;26.83;14.30;;;12.60;99.90;;;;;;5011087;28;20032;-75
2021/03/26 13:08:41;;;;;;;31.05;14.07;;;12.60;99.90;;;;;;5012121;28;20058;-75
2021/03/26 13:11:16;;;;;;;27.63;14.02;;;12.70;99.90;;;;;;5012477;28;20021;-76
2021/03/26 13:13:47;;;;;;;30.35;14.48;;;12.70;99.90;;;;;;5011993;28;20056;-75
2021/03/26 13:16:30;;;;;;;40.85;15.93;;;12.70;99.90;;;;;;5012268;28;20479;-76
2021/03/26 13:18:58;;;;;;;29.23;15.25;;;12.90;99.90;;;;;;5011966;28;20053;-75
2021/03/26 13:21:26;;;;;;;24.10;14.38;;;13.00;99.90;;;;;;5012278;28;20413;-75
2021/03/26 13:23:57;;;;;;;27.75;13.50;;;13.20;99.90;;;;;;5010264;28;20079;-75
2021/03/26 13:26:27;;;;;;;30.60;13.93;;;13.60;99.90;;;;;;5012260;28;20128;-75
2021/03/26 13:29:00;;;;;;;24.88;14.70;;;14.20;99.90;;;;;;5011911;28;20168;-75
2021/03/26 13:31:33;;;;;;;36.70;13.90;;;14.50;99.90;;;;;;5010797;28;20297;-75
2021/03/26 13:34:07;;;;;;;32.20;14.93;;;14.70;99.90;;;;;;5011495;28;20030;-75
2021/03/26 13:36:56;;;;;;;26.05;13.85;;;15.10;99.90;;;;;;5012061;28;20115;-75